Time;durP1;ratioP1;P1;durP2;ratioP2;P2;SDS_P1;SDS_P2;PMS_P1;PMS_P2;Temp;Humidity;BMP_temperature;BMP_pressure;BME280_temperature;BME280_humidity;BME280_pressure;Samples;Min_cycle;Max_cycle;Signal;HPM_P1;HPM_P2
2022/11/15 00:00:51;;;;;;;24.77;17.02;;;6.50;99.90;;;;;;5070629;28;20049;-76
2022/11/15 00:03:18;;;;;;;24.63;17.35;;;6.50;99.90;;;;;;5067882;28;20044;-75
2022/11/15 00:05:44;;;;;;;22.83;17.15;;;6.60;99.90;;;;;;5068726;28;20089;-75
2022/11/15 00:08:09;;;;;;;24.17;17.77;;;6.60;99.90;;;;;;5071127;28;20459;-76
2022/11/15 00:10:36;;;;;;;23.95;16.75;;;6.70;99.90;;;;;;5082008;28;20036;-76
2022/11/15 00:13:06;;;;;;;25.33;17.45;;;6.70;99.90;;;;;;5077025;28;20049;-76
2022/11/15 00:15:31;;;;;;;24.27;16.58;;;6.80;99.90;;;;;;5074755;28;20036;-76
2022/11/15 00:17:57;;;;;;;22.20;16.63;;;6.80;99.90;;;;;;5078395;28;20375;-76
2022/11/15 00:20:22;;;;;;;24.40;16.45;;;7.00;99.90;;;;;;5068547;28;20037;-75
2022/11/15 00:22:48;;;;;;;23.48;16.63;;;6.90;99.90;;;;;;5068163;28;20137;-76
2022/11/15 00:25:13;;;;;;;22.15;15.38;;;6.90;99.90;;;;;;5069659;28;20040;-76
2022/11/15 00:27:39;;;;;;;21.25;16.05;;;7.00;99.90;;;;;;5085276;28;20051;-76
2022/11/15 00:30:05;;;;;;;24.08;17.30;;;7.00;99.90;;;;;;5075452;28;20501;-76
2022/11/15 00:32:32;;;;;;;24.02;16.33;;;7.00;99.90;;;;;;5079995;28;20041;-76
2022/11/15 00:34:57;;;;;;;21.17;14.75;;;7.10;99.90;;;;;;5085577;28;20119;-75
2022/11/15 00:37:23;;;;;;;23.02;16.92;;;7.10;99.90;;;;;;5085658;28;20584;-75
2022/11/15 00:39:48;;;;;;;21.25;15.40;;;7.10;99.90;;;;;;5067989;28;20131;-76
2022/11/15 00:42:14;;;;;;;25.70;17.17;;;7.10;99.90;;;;;;5066435;28;20041;-76
2022/11/15 00:44:40;;;;;;;21.10;15.05;;;7.20;99.90;;;;;;5084785;28;20044;-76
2022/11/15 00:47:05;;;;;;;25.30;16.65;;;7.20;99.90;;;;;;5084801;28;20671;-75
2022/11/15 00:49:31;;;;;;;23.05;14.98;;;7.20;99.90;;;;;;5084008;28;20032;-75
2022/11/15 00:51:56;;;;;;;23.95;16.50;;;7.20;99.90;;;;;;5088180;28;20044;-76
2022/11/15 00:54:22;;;;;;;23.30;16.55;;;7.20;99.90;;;;;;5078469;28;20044;-76
2022/11/15 00:56:48;;;;;;;24.27;16.38;;;7.30;99.90;;;;;;5081639;28;20522;-76
2022/11/15 00:59:13;;;;;;;21.70;14.63;;;7.30;99.90;;;;;;5081405;28;20059;-75
2022/11/15 01:01:39;;;;;;;24.83;16.35;;;7.30;99.90;;;;;;5074163;28;20057;-75
2022/11/15 01:04:04;;;;;;;23.63;15.35;;;7.30;99.90;;;;;;5084523;28;20052;-75
2022/11/15 01:06:30;;;;;;;27.25;16.88;;;7.30;99.90;;;;;;5071338;28;20387;-76
2022/11/15 01:08:55;;;;;;;25.15;15.88;;;7.30;99.90;;;;;;5068414;28;20426;-76
2022/11/15 01:11:21;;;;;;;25.90;16.20;;;7.40;99.90;;;;;;5067032;28;20387;-75
2022/11/15 01:13:46;;;;;;;27.90;16.38;;;7.40;99.90;;;;;;5068207;28;20044;-75
2022/11/15 01:16:14;;;;;;;24.58;16.38;;;7.40;99.90;;;;;;5085208;28;20044;-75
2022/11/15 01:18:41;;;;;;;25.38;16.42;;;7.40;99.90;;;;;;5076180;28;20044;-76
2022/11/15 01:21:11;;;;;;;24.35;17.15;;;7.40;99.90;;;;;;5067820;28;20044;-76
2022/11/15 01:23:38;;;;;;;24.85;15.57;;;7.40;99.90;;;;;;5069087;28;20096;-76
2022/11/15 01:26:05;;;;;;;28.42;16.60;;;7.40;99.90;;;;;;5066375;28;20514;-75
2022/11/15 01:28:33;;;;;;;26.63;17.20;;;7.40;99.90;;;;;;5065327;28;20047;-76
2022/11/15 01:30:59;;;;;;;26.67;17.05;;;7.40;99.90;;;;;;5070182;28;20036;-75
2022/11/15 01:33:25;;;;;;;25.08;16.42;;;7.40;99.90;;;;;;5074772;28;20055;-75
2022/11/15 01:35:51;;;;;;;24.05;14.32;;;7.40;99.90;;;;;;5077881;28;20115;-75
2022/11/15 01:38:16;;;;;;;24.73;16.67;;;7.40;99.90;;;;;;5077436;28;20079;-75
2022/11/15 01:40:42;;;;;;;29.08;16.58;;;7.40;99.90;;;;;;5075992;28;20052;-75
2022/11/15 01:43:30;;;;;;;24.15;16.25;;;7.40;99.90;;;;;;5075473;28;20040;-75
2022/11/15 01:46:02;;;;;;;26.55;16.90;;;7.50;99.90;;;;;;5084535;28;20046;-75
2022/11/15 01:48:34;;;;;;;26.40;16.38;;;7.50;99.90;;;;;;5072797;28;20125;-75
2022/11/15 01:51:09;;;;;;;27.63;15.70;;;7.50;99.90;;;;;;5066961;28;20032;-75
2022/11/15 01:53:38;;;;;;;26.08;16.45;;;7.50;99.90;;;;;;5053054;28;20048;-76
2022/11/15 01:56:07;;;;;;;19.35;13.65;;;7.50;99.90;;;;;;5087387;28;20193;-75
2022/11/15 01:58:34;;;;;;;26.88;16.38;;;7.50;99.90;;;;;;5084168;28;20197;-75
2022/11/15 02:00:59;;;;;;;24.38;15.90;;;7.50;99.90;;;;;;5072934;28;20049;-76
2022/11/15 02:03:33;;;;;;;23.73;16.30;;;7.50;99.90;;;;;;5083407;28;20102;-75
2022/11/15 02:05:59;;;;;;;25.35;16.02;;;7.50;99.90;;;;;;5067341;28;20551;-75
2022/11/15 02:08:25;;;;;;;21.60;15.43;;;7.50;99.90;;;;;;5065877;28;20044;-76
2022/11/15 02:10:51;;;;;;;27.98;15.90;;;7.50;99.90;;;;;;5082501;28;20053;-76
2022/11/15 02:13:17;;;;;;;26.45;16.92;;;7.50;99.90;;;;;;5065214;28;20055;-76
2022/11/15 02:15:58;;;;;;;24.25;15.65;;;7.60;99.90;;;;;;5068649;28;20071;-76
2022/11/15 02:18:41;;;;;;;27.42;16.23;;;7.60;99.90;;;;;;5064969;28;20048;-75
2022/11/15 02:21:37;;;;;;;22.90;15.50;;;7.60;99.90;;;;;;5080819;28;20047;-75
2022/11/15 02:24:24;;;;;;;26.35;15.93;;;7.60;99.90;;;;;;5089379;28;20188;-75
2022/11/15 02:27:11;;;;;;;26.75;16.02;;;7.60;99.90;;;;;;5072946;28;20044;-75
2022/11/15 02:30:07;;;;;;;26.60;15.75;;;7.70;99.90;;;;;;5070263;28;20045;-76
2022/11/15 02:32:57;;;;;;;25.08;15.85;;;7.70;99.90;;;;;;5070656;28;20048;-75
2022/11/15 02:35:35;;;;;;;27.45;15.80;;;7.70;99.90;;;;;;5083149;28;20067;-75
2022/11/15 02:38:46;;;;;;;24.70;14.25;;;7.70;99.90;;;;;;5094386;28;20458;-75
2022/11/15 02:41:20;;;;;;;27.00;15.38;;;7.70;99.90;;;;;;5069128;28;20052;-75
2022/11/15 02:43:56;;;;;;;27.38;16.23;;;7.70;99.90;;;;;;5069531;28;20048;-76
2022/11/15 02:49:32;;;;;;;25.77;15.75;;;7.80;99.90;;;;;;5080360;28;20084;-74
2022/11/15 02:51:58;;;;;;;29.70;16.25;;;7.80;99.90;;;;;;5069354;28;20044;-74
2022/11/15 02:54:28;;;;;;;29.08;16.67;;;7.90;99.90;;;;;;5068546;28;20051;-73
2022/11/15 02:56:58;;;;;;;31.30;17.75;;;7.80;99.90;;;;;;5088059;28;20056;-74
2022/11/15 02:59:27;;;;;;;34.55;18.30;;;7.80;99.90;;;;;;5076441;28;20056;-74
2022/11/15 03:02:30;;;;;;;30.25;17.75;;;7.80;99.90;;;;;;5084078;28;20036;-74
2022/11/15 03:05:09;;;;;;;30.42;17.25;;;7.80;99.90;;;;;;5079704;28;20127;-73
2022/11/15 03:07:40;;;;;;;32.15;17.75;;;7.80;99.90;;;;;;5069879;28;20042;-75
2022/11/15 03:10:17;;;;;;;41.33;19.25;;;7.80;99.90;;;;;;5083382;28;20510;-75
2022/11/15 03:12:47;;;;;;;39.45;20.58;;;7.80;99.90;;;;;;5065021;28;20048;-75
2022/11/15 03:15:27;;;;;;;36.30;19.65;;;8.10;99.90;;;;;;5079862;28;20048;-75
2022/11/15 03:18:09;;;;;;;39.88;18.35;;;7.90;99.90;;;;;;5070220;28;20040;-75
2022/11/15 03:20:36;;;;;;;38.33;17.85;;;7.90;99.90;;;;;;5087224;28;20066;-75
2022/11/15 03:23:06;;;;;;;35.25;18.02;;;7.80;99.90;;;;;;5071082;28;20048;-75
2022/11/15 03:25:36;;;;;;;38.97;19.60;;;7.90;99.90;;;;;;5087094;28;20136;-75
2022/11/15 03:28:05;;;;;;;37.47;18.45;;;7.90;99.90;;;;;;5071827;28;20055;-75
2022/11/15 03:30:34;;;;;;;42.50;20.10;;;7.90;99.90;;;;;;5085096;28;20052;-75
2022/11/15 03:33:02;;;;;;;41.28;19.15;;;7.90;99.90;;;;;;5072274;28;20063;-75
2022/11/15 03:35:32;;;;;;;42.47;21.17;;;8.00;99.90;;;;;;5088125;28;20712;-76
2022/11/15 03:38:17;;;;;;;45.95;21.30;;;7.90;99.90;;;;;;5075496;28;20451;-75
2022/11/15 03:40:48;;;;;;;42.38;19.88;;;8.00;99.90;;;;;;5083282;28;20066;-75
2022/11/15 03:43:33;;;;;;;43.25;21.70;;;8.00;99.90;;;;;;5068311;28;20149;-75
2022/11/15 03:46:07;;;;;;;41.35;20.23;;;8.00;99.90;;;;;;5068728;28;20177;-76
2022/11/15 03:49:13;;;;;;;43.58;21.88;;;8.00;99.90;;;;;;5066957;28;20044;-75
2022/11/15 03:51:40;;;;;;;43.63;21.17;;;8.10;99.90;;;;;;5070538;28;20040;-75
2022/11/15 03:54:05;;;;;;;41.05;20.52;;;8.10;99.90;;;;;;5089107;28;20047;-76
2022/11/15 03:56:34;;;;;;;41.08;20.70;;;8.00;99.90;;;;;;5085196;28;20417;-76
2022/11/15 03:59:00;;;;;;;48.28;24.13;;;8.10;99.90;;;;;;5082007;28;20054;-76
2022/11/15 04:01:25;;;;;;;48.30;21.70;;;8.10;99.90;;;;;;5088649;28;20079;-76
2022/11/15 04:03:51;;;;;;;46.95;22.35;;;8.10;99.90;;;;;;5070223;28;20040;-76
2022/11/15 04:06:16;;;;;;;52.50;22.75;;;8.20;99.90;;;;;;5065568;28;20105;-76
2022/11/15 04:08:42;;;;;;;38.67;20.33;;;8.10;99.90;;;;;;5086475;28;20047;-76
2022/11/15 04:11:07;;;;;;;46.70;23.67;;;8.20;99.90;;;;;;5089011;28;20083;-75
2022/11/15 04:13:33;;;;;;;44.40;23.52;;;8.20;99.90;;;;;;5082526;28;20048;-75
2022/11/15 04:15:58;;;;;;;41.38;22.92;;;8.20;99.90;;;;;;5067919;28;20063;-75
2022/11/15 04:18:24;;;;;;;49.97;23.67;;;8.20;99.90;;;;;;5055157;28;21381;-75
2022/11/15 04:26:21;;;;;;;45.95;24.05;;;8.30;99.90;;;;;;5085674;28;20075;-75
2022/11/15 04:31:31;;;;;;;49.75;24.17;;;8.30;99.90;;;;;;5080665;28;20048;-75
2022/11/15 04:33:57;;;;;;;46.05;23.30;;;8.40;99.90;;;;;;5072277;28;20045;-75
2022/11/15 04:39:07;;;;;;;42.72;22.77;;;8.40;99.90;;;;;;5076190;28;20044;-75
2022/11/15 04:41:33;;;;;;;54.95;26.23;;;8.50;99.90;;;;;;5075728;28;20045;-75
2022/11/15 04:43:58;;;;;;;57.55;25.05;;;8.50;99.90;;;;;;5072042;28;20054;-75
2022/11/15 04:46:24;;;;;;;57.50;24.80;;;8.50;99.90;;;;;;5087612;28;20098;-75
2022/11/15 04:48:53;;;;;;;51.38;26.45;;;8.50;99.90;;;;;;5078123;28;20409;-75
2022/11/15 04:51:19;;;;;;;55.70;25.90;;;8.60;99.90;;;;;;5080909;28;20043;-75
2022/11/15 04:53:45;;;;;;;54.75;25.65;;;8.60;99.90;;;;;;5069477;28;20086;-75
2022/11/15 04:56:10;;;;;;;49.17;25.30;;;8.60;99.90;;;;;;5066315;28;20048;-75
2022/11/15 04:58:36;;;;;;;50.58;25.55;;;8.60;99.90;;;;;;5071396;28;20052;-75
2022/11/15 05:01:14;;;;;;;50.47;25.77;;;8.70;99.90;;;;;;5086236;28;20076;-75
2022/11/15 05:06:28;;;;;;;45.80;25.70;;;8.70;99.90;;;;;;5083628;28;20053;-75
2022/11/15 05:08:54;;;;;;;55.55;26.40;;;8.80;99.90;;;;;;5067043;28;20040;-75
2022/11/15 05:11:20;;;;;;;52.05;25.40;;;8.80;99.90;;;;;;5071665;28;20119;-75
2022/11/15 05:13:46;;;;;;;57.55;28.30;;;8.80;99.90;;;;;;5084917;28;20474;-75
2022/11/15 05:16:12;;;;;;;50.33;25.65;;;8.90;99.90;;;;;;5069990;28;20119;-75
2022/11/15 05:18:40;;;;;;;55.67;27.95;;;8.90;99.90;;;;;;5071107;28;20048;-75
2022/11/15 05:21:14;;;;;;;54.97;27.75;;;8.90;99.90;;;;;;5072624;28;20044;-75
2022/11/15 05:23:40;;;;;;;55.58;26.92;;;9.00;99.90;;;;;;5071879;28;20040;-75
2022/11/15 05:26:07;;;;;;;50.10;26.80;;;9.00;99.90;;;;;;5076325;28;20136;-75
2022/11/15 05:28:33;;;;;;;52.60;26.50;;;9.00;99.90;;;;;;5067969;28;20387;-75
2022/11/15 05:31:13;;;;;;;50.90;25.40;;;9.00;99.90;;;;;;5069559;28;20489;-75
2022/11/15 05:33:40;;;;;;;44.13;25.38;;;9.00;99.90;;;;;;5067369;28;20565;-75
2022/11/15 05:36:35;;;;;;;44.63;24.83;;;9.00;99.90;;;;;;5067147;28;20119;-75
2022/11/15 05:39:01;;;;;;;42.60;23.00;;;9.10;99.90;;;;;;5067482;28;20049;-75
2022/11/15 05:41:35;;;;;;;43.83;24.17;;;9.10;99.90;;;;;;5083209;28;20082;-75
2022/11/15 05:44:03;;;;;;;41.42;22.23;;;9.10;99.90;;;;;;5084203;28;20521;-75
2022/11/15 05:46:29;;;;;;;41.20;22.67;;;9.10;99.90;;;;;;5085048;28;20732;-75
2022/11/15 05:48:56;;;;;;;43.92;23.15;;;9.20;99.90;;;;;;5068067;28;20048;-75
2022/11/15 05:51:23;;;;;;;45.70;23.50;;;9.20;99.90;;;;;;5066284;28;20037;-75
2022/11/15 05:53:49;;;;;;;40.83;23.10;;;9.30;99.90;;;;;;5077104;28;20070;-75
2022/11/15 05:56:15;;;;;;;38.50;21.95;;;9.30;99.90;;;;;;5088311;28;20051;-75
2022/11/15 05:58:41;;;;;;;41.22;22.60;;;9.70;99.90;;;;;;5086643;28;20051;-75
2022/11/15 06:01:07;;;;;;;41.42;23.00;;;9.40;99.90;;;;;;5088190;28;20056;-75
2022/11/15 06:03:33;;;;;;;42.55;22.70;;;9.40;99.90;;;;;;5076310;28;20109;-75
2022/11/15 06:05:58;;;;;;;44.97;23.50;;;9.40;99.90;;;;;;5074304;28;20048;-75
2022/11/15 06:08:24;;;;;;;40.50;23.30;;;9.40;99.90;;;;;;5083245;28;20111;-75
2022/11/15 06:10:49;;;;;;;40.05;24.20;;;9.40;99.90;;;;;;5054058;28;20127;-75
2022/11/15 06:13:15;;;;;;;42.58;23.67;;;9.50;99.90;;;;;;5082523;28;20080;-75
2022/11/15 06:15:40;;;;;;;41.83;22.02;;;9.50;99.90;;;;;;5068501;28;20048;-75
2022/11/15 06:18:06;;;;;;;41.95;21.80;;;9.50;99.90;;;;;;5068968;28;20068;-75
2022/11/15 06:20:31;;;;;;;36.30;20.73;;;9.60;99.90;;;;;;5070949;28;20044;-75
2022/11/15 06:22:58;;;;;;;37.10;22.90;;;9.60;99.90;;;;;;5085034;28;20140;-75
2022/11/15 06:25:24;;;;;;;36.80;22.42;;;9.60;99.90;;;;;;5088441;28;20036;-75
2022/11/15 06:27:54;;;;;;;41.55;22.17;;;9.70;99.90;;;;;;5091111;28;20125;-75
2022/11/15 06:30:21;;;;;;;43.00;22.88;;;9.70;99.90;;;;;;5081593;28;20057;-75
2022/11/15 06:32:47;;;;;;;39.83;22.17;;;9.70;99.90;;;;;;5069871;28;20524;-75
2022/11/15 06:35:13;;;;;;;35.03;21.83;;;9.80;99.90;;;;;;5072989;28;20041;-75
2022/11/15 06:37:40;;;;;;;41.10;22.08;;;9.80;99.90;;;;;;5070133;28;20584;-75
2022/11/15 06:40:07;;;;;;;37.75;21.42;;;9.80;99.90;;;;;;5070598;28;20106;-75
2022/11/15 06:42:32;;;;;;;38.65;22.13;;;9.90;99.90;;;;;;5071383;28;20087;-75
2022/11/15 06:44:58;;;;;;;37.80;21.85;;;9.90;99.90;;;;;;5069458;28;20130;-75
2022/11/15 06:47:24;;;;;;;36.78;21.25;;;9.70;99.90;;;;;;5080364;28;20059;-75
2022/11/15 06:49:49;;;;;;;36.05;21.13;;;10.00;99.90;;;;;;5076262;28;20042;-76
2022/11/15 06:52:15;;;;;;;37.88;21.17;;;10.10;99.90;;;;;;5069788;28;20059;-75
2022/11/15 06:54:40;;;;;;;34.42;20.92;;;10.00;99.90;;;;;;5084839;28;20076;-76
2022/11/15 06:57:06;;;;;;;37.78;20.50;;;10.10;99.90;;;;;;5080909;28;20109;-76
2022/11/15 06:59:31;;;;;;;30.48;19.13;;;10.00;99.90;;;;;;5071592;28;20060;-76
2022/11/15 07:01:57;;;;;;;32.10;20.13;;;10.10;99.90;;;;;;5090726;28;20040;-75
2022/11/15 07:04:23;;;;;;;33.90;19.45;;;9.90;99.90;;;;;;5089296;28;20756;-76
2022/11/15 07:06:48;;;;;;;28.98;18.85;;;10.10;99.90;;;;;;5072307;28;20599;-75
2022/11/15 07:09:14;;;;;;;31.92;19.33;;;10.20;99.90;;;;;;5071531;28;20040;-75
2022/11/15 07:11:40;;;;;;;27.88;19.38;;;10.20;99.90;;;;;;5068773;28;20040;-76
2022/11/15 07:14:05;;;;;;;32.63;19.65;;;10.10;99.90;;;;;;5070478;28;20101;-75
2022/11/15 07:16:31;;;;;;;31.60;19.95;;;10.20;99.90;;;;;;5086057;28;20055;-74
2022/11/15 07:18:56;;;;;;;25.67;18.75;;;10.20;99.90;;;;;;5088871;28;20172;-76
2022/11/15 07:21:22;;;;;;;27.30;18.70;;;10.20;99.90;;;;;;5089090;28;20128;-76
2022/11/15 07:23:47;;;;;;;29.98;19.05;;;10.20;99.90;;;;;;5086338;28;20079;-75
2022/11/15 07:26:13;;;;;;;29.30;19.08;;;10.20;99.90;;;;;;5051578;28;20888;-76
2022/11/15 07:28:39;;;;;;;30.02;19.80;;;10.10;99.90;;;;;;5069447;28;20055;-76
2022/11/15 07:31:07;;;;;;;29.73;19.30;;;10.30;99.90;;;;;;5068502;28;20102;-75
2022/11/15 07:33:33;;;;;;;24.58;17.83;;;10.20;99.90;;;;;;5068822;28;20056;-76
2022/11/15 07:36:03;;;;;;;33.70;20.40;;;10.30;99.90;;;;;;5068038;28;20044;-75
2022/11/15 07:38:29;;;;;;;30.70;19.45;;;10.50;99.90;;;;;;5068424;28;20769;-76
2022/11/15 07:41:00;;;;;;;26.38;16.63;;;10.20;99.90;;;;;;5079598;28;20045;-74
2022/11/15 07:43:27;;;;;;;27.05;18.77;;;10.20;99.90;;;;;;5088351;28;20044;-75
2022/11/15 07:45:53;;;;;;;26.13;17.40;;;10.30;99.90;;;;;;5088424;28;20051;-76
2022/11/15 07:48:19;;;;;;;25.45;18.40;;;10.40;99.90;;;;;;5090355;28;20071;-76
2022/11/15 07:50:45;;;;;;;24.70;18.15;;;10.40;99.90;;;;;;5088559;28;20080;-75
2022/11/15 07:53:10;;;;;;;24.27;17.23;;;10.30;99.90;;;;;;5079058;28;20043;-76
2022/11/15 07:55:37;;;;;;;23.33;17.13;;;10.50;99.90;;;;;;5071011;28;20048;-76
2022/11/15 07:58:08;;;;;;;20.92;15.98;;;10.40;99.90;;;;;;5070765;28;20040;-76
2022/11/15 08:00:35;;;;;;;29.33;18.08;;;10.30;99.90;;;;;;5090130;28;20059;-76
2022/11/15 08:03:10;;;;;;;25.20;17.35;;;10.50;99.90;;;;;;5087916;28;20055;-76
2022/11/15 08:05:37;;;;;;;25.48;17.63;;;10.60;99.90;;;;;;5088148;28;20375;-77
2022/11/15 08:08:03;;;;;;;24.35;15.88;;;10.50;99.90;;;;;;5088071;28;20040;-77
2022/11/15 08:10:29;;;;;;;24.48;16.50;;;10.50;99.90;;;;;;5088045;28;20092;-77
2022/11/15 08:12:59;;;;;;;21.98;15.73;;;10.60;99.90;;;;;;5086825;28;20044;-77
2022/11/15 08:15:25;;;;;;;25.52;17.02;;;10.50;99.90;;;;;;5087155;28;20131;-77
2022/11/15 08:18:00;;;;;;;26.38;17.27;;;10.60;99.90;;;;;;5074942;28;20059;-77
2022/11/15 08:20:29;;;;;;;23.10;15.73;;;10.60;99.90;;;;;;5069070;28;20086;-77
2022/11/15 08:22:56;;;;;;;24.33;16.63;;;10.70;99.90;;;;;;5067652;28;20063;-77
2022/11/15 08:25:22;;;;;;;21.92;15.80;;;10.70;99.90;;;;;;5067715;28;20048;-77
2022/11/15 08:27:52;;;;;;;24.20;16.40;;;10.80;99.90;;;;;;5069400;28;20125;-77
2022/11/15 08:30:17;;;;;;;19.70;14.95;;;10.80;99.90;;;;;;5072900;28;20448;-77
2022/11/15 08:32:43;;;;;;;25.88;16.88;;;10.90;99.90;;;;;;5068148;28;20040;-77
2022/11/15 08:35:08;;;;;;;22.75;16.67;;;10.90;99.90;;;;;;5067836;28;20091;-77
2022/11/15 08:37:35;;;;;;;24.77;16.40;;;10.90;99.90;;;;;;5068371;28;20060;-77
2022/11/15 08:40:01;;;;;;;21.92;15.77;;;11.00;99.90;;;;;;5067491;28;20143;-77
2022/11/15 08:42:26;;;;;;;26.20;17.58;;;11.10;99.90;;;;;;5067578;28;20083;-77
2022/11/15 08:44:52;;;;;;;25.33;17.60;;;;;;;;;;5067187;28;20060;-77
2022/11/15 08:47:18;;;;;;;23.25;16.58;;;11.00;99.90;;;;;;5068873;28;20060;-77
2022/11/15 08:49:44;;;;;;;21.30;16.83;;;11.00;99.90;;;;;;5057597;28;20044;-77
2022/11/15 08:52:10;;;;;;;24.58;17.08;;;;;;;;;;5066869;28;20923;-77
2022/11/15 08:54:35;;;;;;;21.17;15.65;;;;;;;;;;5066700;28;20040;-77
2022/11/15 08:57:02;;;;;;;23.88;17.20;;;;;;;;;;5071012;28;20495;-78
2022/11/15 08:59:27;;;;;;;25.42;17.90;;;;;;;;;;5078932;28;20059;-78
2022/11/15 09:01:53;;;;;;;27.02;17.90;;;;;;;;;;5071629;28;20102;-77
2022/11/15 09:04:21;;;;;;;25.60;17.45;;;11.20;99.90;;;;;;5072365;28;20052;-77
2022/11/15 09:06:48;;;;;;;27.10;18.20;;;11.30;99.90;;;;;;5080522;28;20047;-77
2022/11/15 09:09:14;;;;;;;24.38;17.50;;;11.30;99.90;;;;;;5069739;28;20215;-76
2022/11/15 09:11:40;;;;;;;28.02;17.15;;;11.40;99.90;;;;;;5077581;28;20569;-76
2022/11/15 09:14:05;;;;;;;22.85;15.73;;;11.50;99.90;;;;;;5083341;28;21603;-76
2022/11/15 09:16:34;;;;;;;24.10;16.45;;;11.50;99.90;;;;;;5075649;28;20044;-76
2022/11/15 09:18:59;;;;;;;20.05;15.80;;;11.70;99.90;;;;;;5076160;28;20044;-76
2022/11/15 09:21:25;;;;;;;25.02;16.88;;;11.70;99.90;;;;;;5086284;28;20467;-78
2022/11/15 09:23:51;;;;;;;21.27;16.65;;;11.60;99.90;;;;;;5087807;28;20127;-77
2022/11/15 09:26:17;;;;;;;22.63;16.30;;;11.50;99.90;;;;;;5086270;28;20048;-77
2022/11/15 09:28:43;;;;;;;19.73;14.75;;;11.60;99.90;;;;;;5085755;28;20116;-77
2022/11/15 09:31:09;;;;;;;20.77;16.42;;;12.30;99.90;;;;;;5085871;28;20047;-77
2022/11/15 09:33:35;;;;;;;21.30;15.85;;;11.50;99.90;;;;;;5070956;28;20465;-77
2022/11/15 09:36:04;;;;;;;18.85;14.60;;;11.80;99.90;;;;;;5067742;28;20044;-77
2022/11/15 09:38:29;;;;;;;22.30;16.80;;;11.70;99.90;;;;;;5049539;28;20520;-75
2022/11/15 09:41:20;;;;;;;23.30;16.48;;;11.60;99.90;;;;;;5066651;28;20053;-76
2022/11/15 09:43:49;;;;;;;20.45;15.50;;;;;;;;;;5067851;28;20048;-76
2022/11/15 09:46:31;;;;;;;17.60;13.63;;;11.60;99.90;;;;;;5067495;28;20504;-77
2022/11/15 09:48:59;;;;;;;20.00;15.82;;;11.70;99.90;;;;;;5065248;28;20051;-77
2022/11/15 09:51:46;;;;;;;16.88;14.07;;;11.80;99.90;;;;;;5076619;28;20086;-76
2022/11/15 09:54:31;;;;;;;16.85;12.95;;;11.80;99.90;;;;;;5086375;28;20060;-80
2022/11/15 09:57:18;;;;;;;15.55;12.40;;;11.90;99.90;;;;;;5082120;28;20115;-76
2022/11/15 10:00:21;;;;;;;15.20;12.82;;;11.80;99.90;;;;;;5087909;28;20087;-77
2022/11/15 10:03:01;;;;;;;16.02;12.43;;;;;;;;;;5066201;28;20110;-77
2022/11/15 10:05:28;;;;;;;16.33;12.85;;;11.80;99.90;;;;;;5067832;28;20040;-76
2022/11/15 10:08:02;;;;;;;17.88;13.45;;;11.70;99.90;;;;;;5067196;28;20048;-77
2022/11/15 10:10:46;;;;;;;17.70;13.32;;;11.70;99.90;;;;;;5077038;28;20097;-79
2022/11/15 10:13:31;;;;;;;16.20;12.30;;;11.70;99.90;;;;;;5074687;28;20055;-79
2022/11/15 10:16:26;;;;;;;16.45;12.85;;;11.70;99.90;;;;;;5067539;28;20086;-79
2022/11/15 10:19:13;;;;;;;16.30;13.15;;;11.70;99.90;;;;;;5038720;28;20131;-79
2022/11/15 10:21:50;;;;;;;17.38;13.18;;;11.70;99.90;;;;;;5067196;28;20116;-79
2022/11/15 10:24:23;;;;;;;16.10;12.05;;;11.80;99.90;;;;;;5066440;28;20048;-79
2022/11/15 10:26:49;;;;;;;13.20;11.35;;;11.80;99.90;;;;;;5068419;28;20032;-79
2022/11/15 10:29:22;;;;;;;15.00;11.95;;;11.90;99.90;;;;;;5067298;28;20114;-79
2022/11/15 10:31:48;;;;;;;15.13;12.45;;;11.90;99.90;;;;;;5049454;28;20053;-78
2022/11/15 10:34:18;;;;;;;15.88;13.30;;;12.00;99.90;;;;;;5067168;28;20566;-78
2022/11/15 10:36:46;;;;;;;13.38;11.98;;;12.10;99.90;;;;;;5067107;28;20135;-78
2022/11/15 10:39:13;;;;;;;16.70;12.45;;;12.20;99.90;;;;;;5048909;28;20044;-77
2022/11/15 10:41:42;;;;;;;14.40;12.40;;;12.20;99.90;;;;;;5071989;28;20048;-78
2022/11/15 10:44:16;;;;;;;15.35;12.27;;;12.30;99.90;;;;;;5070856;28;20049;-78
2022/11/15 10:46:46;;;;;;;16.65;12.23;;;12.30;99.90;;;;;;5087613;28;20359;-79
2022/11/15 10:49:20;;;;;;;11.30;10.07;;;12.30;99.90;;;;;;5069539;28;20048;-78
2022/11/15 10:51:56;;;;;;;12.40;9.95;;;12.40;99.90;;;;;;5069084;28;20098;-78
2022/11/15 10:54:30;;;;;;;10.70;9.35;;;12.40;99.90;;;;;;5052811;28;20044;-77
2022/11/15 10:56:59;;;;;;;10.52;9.52;;;12.50;99.90;;;;;;5068805;28;20048;-77
2022/11/15 10:59:37;;;;;;;11.20;9.32;;;12.50;99.90;;;;;;5064102;28;20483;-77
2022/11/15 11:02:22;;;;;;;9.52;8.48;;;12.50;99.90;;;;;;5052173;28;20440;-78
2022/11/15 11:04:51;;;;;;;8.48;7.57;;;12.50;99.90;;;;;;5068631;28;20181;-78
2022/11/15 11:07:26;;;;;;;10.48;7.85;;;12.60;99.90;;;;;;5051910;28;20040;-77
2022/11/15 11:09:58;;;;;;;8.70;6.88;;;12.70;99.90;;;;;;5069995;28;20044;-78
2022/11/15 11:12:31;;;;;;;7.65;6.57;;;12.70;99.90;;;;;;5087749;28;20089;-77
2022/11/15 11:14:57;;;;;;;;;;;12.80;99.90;;;;;;5090947;28;20409;-78
2022/11/15 11:17:43;;;;;;;7.60;6.10;;;12.80;99.90;;;;;;5076646;28;20318;-78
2022/11/15 11:20:27;;;;;;;8.27;6.03;;;12.90;99.90;;;;;;5073727;28;20577;-77
2022/11/15 11:23:30;;;;;;;7.45;6.38;;;12.90;99.90;;;;;;5069343;28;20127;-77
2022/11/15 11:26:11;;;;;;;7.78;6.10;;;12.90;99.90;;;;;;5072794;28;20047;-78
2022/11/15 11:28:50;;;;;;;7.60;5.68;;;12.90;99.90;;;;;;5078742;28;20044;-78
2022/11/15 11:31:34;;;;;;;9.45;4.70;;;12.90;99.90;;;;;;5088920;28;20557;-78
2022/11/15 11:34:19;;;;;;;5.28;4.57;;;12.70;99.90;;;;;;5089213;28;20098;-78
2022/11/15 11:37:07;;;;;;;5.22;4.72;;;12.80;99.90;;;;;;5068763;28;20045;-78
2022/11/15 11:39:52;;;;;;;6.25;4.90;;;12.80;99.90;;;;;;5067666;28;20102;-78
2022/11/15 11:42:41;;;;;;;8.48;5.72;;;12.70;99.90;;;;;;5072788;28;20123;-78
2022/11/15 11:45:10;;;;;;;6.72;5.30;;;12.80;99.90;;;;;;5090310;28;20051;-78
2022/11/15 11:47:43;;;;;;;8.80;6.63;;;12.70;99.90;;;;;;5088515;28;20529;-78
2022/11/15 11:50:18;;;;;;;7.05;5.30;;;12.60;99.90;;;;;;5088713;28;20163;-78
2022/11/15 11:53:02;;;;;;;7.25;5.55;;;12.60;99.90;;;;;;5080008;28;20047;-77
2022/11/15 11:55:38;;;;;;;6.13;5.32;;;12.50;99.90;;;;;;5068287;28;20407;-78
2022/11/15 11:58:26;;;;;;;6.05;5.43;;;12.50;99.90;;;;;;5070740;28;20071;-78
2022/11/15 12:01:14;;;;;;;6.65;4.88;;;12.40;99.90;;;;;;5069352;28;20052;-78
2022/11/15 12:04:09;;;;;;;7.10;5.55;;;12.40;99.90;;;;;;5067227;28;20059;-77
2022/11/15 12:06:50;;;;;;;7.55;5.85;;;12.30;99.90;;;;;;5067181;28;20055;-77
2022/11/15 12:09:35;;;;;;;5.90;5.30;;;12.30;99.90;;;;;;5087495;28;20127;-78
2022/11/15 12:12:23;;;;;;;5.35;4.78;;;12.30;99.90;;;;;;5089257;28;20040;-78
2022/11/15 12:14:57;;;;;;;8.82;5.07;;;12.70;99.90;;;;;;5089549;28;20055;-76
2022/11/15 12:17:32;;;;;;;8.00;4.70;;;12.50;99.90;;;;;;5071223;28;20097;-78
2022/11/15 12:20:01;;;;;;;7.50;5.00;;;13.30;99.90;;;;;;5074647;28;20051;-77
2022/11/15 12:22:45;;;;;;;6.65;4.63;;;12.80;99.90;;;;;;5067794;28;20051;-78
2022/11/15 12:25:35;;;;;;;10.45;5.03;;;12.90;99.90;;;;;;5069187;28;20048;-83
2022/11/15 12:28:28;;;;;;;7.57;5.10;;;13.00;99.90;;;;;;5050241;28;20056;-76
2022/11/15 12:31:01;;;;;;;7.82;4.68;;;13.00;99.90;;;;;;5068744;28;20036;-76
2022/11/15 12:33:45;;;;;;;5.53;4.07;;;13.10;99.90;;;;;;5084502;28;20098;-76
2022/11/15 12:36:21;;;;;;;6.32;3.88;;;13.20;99.90;;;;;;5084182;28;20044;-77
2022/11/15 12:38:54;;;;;;;5.95;3.80;;;13.20;99.90;;;;;;5068805;28;20135;-76
2022/11/15 12:41:22;;;;;;;4.40;3.70;;;13.20;99.90;;;;;;5068776;28;20075;-77
2022/11/15 12:43:48;;;;;;;11.07;4.45;;;13.20;99.90;;;;;;5089097;28;20055;-76
2022/11/15 12:46:29;;;;;;;6.85;3.53;;;13.30;99.90;;;;;;5087227;28;20075;-77
2022/11/15 12:49:10;;;;;;;4.47;3.30;;;13.40;99.90;;;;;;5082861;28;20103;-78
2022/11/15 12:51:41;;;;;;;5.35;3.78;;;13.60;99.90;;;;;;5068646;28;20120;-77
2022/11/15 12:54:29;;;;;;;5.50;3.27;;;13.60;99.90;;;;;;5068804;28;20044;-77
2022/11/15 12:57:03;;;;;;;5.38;3.15;;;13.60;99.90;;;;;;5067818;28;20052;-77
2022/11/15 13:00:06;;;;;;;7.32;3.83;;;13.50;99.90;;;;;;5068361;28;20056;-77
2022/11/15 13:02:40;;;;;;;6.22;2.88;;;13.60;99.90;;;;;;5070686;28;20493;-77
2022/11/15 13:07:40;;;;;;;4.57;2.40;;;13.70;99.90;;;;;;5068447;28;20051;-77
2022/11/15 13:10:12;;;;;;;3.80;2.10;;;13.60;99.90;;;;;;5068331;28;20075;-77
2022/11/15 13:12:43;;;;;;;2.85;2.55;;;13.60;99.90;;;;;;5067553;28;20060;-77
2022/11/15 13:15:12;;;;;;;3.00;2.10;;;13.70;99.90;;;;;;5067641;28;20048;-79
2022/11/15 13:17:47;;;;;;;4.03;2.08;;;13.50;99.90;;;;;;5075032;28;20063;-77